West Rock, Minnesota
Current Conditions -  °F | °C
As of 11:15 PM on Friday 24 Oct 2014 (Local Time) from KROS Reporting Station
Scattered Clouds Scattered Clouds  
Wind Chill: 55°   Ceiling: Unl
Heat Index: 55°   Visibility: 10mi
Dew Point: 47°   Wind: 6mph
Humidity: 75%   Direction: 260°W
Pressure: 29.84"   Gusts: NA
Location:  45.8356°N, 92.9649°W
Report Text: KROS 250415Z AUTO 26005KT 10SM SCT110 13/08 A2984 RMK AO2 T01260083
Loading
Personal Weather Stations






























Interactive Weather Map
Tropical Storm Tracking
New forecast layout! Learn more

10-Day Weather Forecast

Advertisements
Track Severe Weather on mobile